sensor_id;sensor_type;location;lat;lon;timestamp;pressure;altitude;pressure_sealevel;temperature;humidity
12949;BME280;6539;49.476;8.484;2023-05-14T00:02:25;100608.03;;;17.14;61.93
12949;BME280;6539;49.476;8.484;2023-05-14T00:04:53;100599.69;;;17.14;61.50
12949;BME280;6539;49.476;8.484;2023-05-14T00:07:18;100601.69;;;17.14;61.37
12949;BME280;6539;49.476;8.484;2023-05-14T00:09:44;100589.03;;;17.13;60.86
12949;BME280;6539;49.476;8.484;2023-05-14T00:12:10;100600.78;;;17.17;60.42
12949;BME280;6539;49.476;8.484;2023-05-14T00:14:38;100600.38;;;17.18;60.03
12949;BME280;6539;49.476;8.484;2023-05-14T00:17:04;100596.81;;;17.18;59.87
12949;BME280;6539;49.476;8.484;2023-05-14T00:19:31;100592.47;;;17.17;59.88
12949;BME280;6539;49.476;8.484;2023-05-14T00:21:57;100600.03;;;17.16;59.90
12949;BME280;6539;49.476;8.484;2023-05-14T00:24:31;100595.56;;;17.19;59.74
12949;BME280;6539;49.476;8.484;2023-05-14T00:26:57;100595.94;;;17.21;60.26
12949;BME280;6539;49.476;8.484;2023-05-14T00:29:22;100594.34;;;17.20;60.52
12949;BME280;6539;49.476;8.484;2023-05-14T00:31:48;100593.25;;;17.17;60.95
12949;BME280;6539;49.476;8.484;2023-05-14T00:34:16;100585.38;;;17.16;60.97
12949;BME280;6539;49.476;8.484;2023-05-14T00:36:44;100578.06;;;17.09;61.17
12949;BME280;6539;49.476;8.484;2023-05-14T00:39:10;100582.81;;;17.09;61.25
12949;BME280;6539;49.476;8.484;2023-05-14T00:41:38;100578.38;;;17.11;61.33
12949;BME280;6539;49.476;8.484;2023-05-14T00:44:06;100583.16;;;17.11;60.99
12949;BME280;6539;49.476;8.484;2023-05-14T00:46:31;100583.06;;;17.14;60.71
12949;BME280;6539;49.476;8.484;2023-05-14T00:48:58;100573.94;;;17.14;60.72
12949;BME280;6539;49.476;8.484;2023-05-14T00:51:24;100582.69;;;17.12;60.36
12949;BME280;6539;49.476;8.484;2023-05-14T00:53:51;100581.50;;;17.13;60.16
12949;BME280;6539;49.476;8.484;2023-05-14T00:56:18;100579.50;;;17.14;60.05
12949;BME280;6539;49.476;8.484;2023-05-14T00:58:46;100572.06;;;17.11;60.28
12949;BME280;6539;49.476;8.484;2023-05-14T01:01:14;100578.06;;;17.09;59.97
12949;BME280;6539;49.476;8.484;2023-05-14T01:03:46;100572.63;;;17.06;59.83
12949;BME280;6539;49.476;8.484;2023-05-14T01:06:25;100573.06;;;17.04;59.80
12949;BME280;6539;49.476;8.484;2023-05-14T01:09:20;100579.38;;;17.05;59.64
12949;BME280;6539;49.476;8.484;2023-05-14T01:12:13;100575.41;;;17.06;59.27
12949;BME280;6539;49.476;8.484;2023-05-14T01:17:31;100569.88;;;17.06;58.91
12949;BME280;6539;49.476;8.484;2023-05-14T01:19:58;100568.28;;;17.05;58.77
12949;BME280;6539;49.476;8.484;2023-05-14T01:22:25;100559.19;;;17.04;58.61
12949;BME280;6539;49.476;8.484;2023-05-14T01:24:50;100561.97;;;17.04;58.55
12949;BME280;6539;49.476;8.484;2023-05-14T01:27:34;100559.19;;;17.04;58.70
12949;BME280;6539;49.476;8.484;2023-05-14T01:32:53;100553.44;;;16.99;58.98
12949;BME280;6539;49.476;8.484;2023-05-14T01:35:25;100557.09;;;16.96;59.05
12949;BME280;6539;49.476;8.484;2023-05-14T01:37:55;100547.97;;;16.95;59.27
12949;BME280;6539;49.476;8.484;2023-05-14T01:40:25;100547.66;;;16.93;59.28
12949;BME280;6539;49.476;8.484;2023-05-14T01:42:52;100564.41;;;16.90;59.59
12949;BME280;6539;49.476;8.484;2023-05-14T01:45:25;100562.84;;;16.89;59.55
12949;BME280;6539;49.476;8.484;2023-05-14T01:47:51;100568.41;;;16.89;59.46
12949;BME280;6539;49.476;8.484;2023-05-14T01:50:19;100563.75;;;16.86;59.61
12949;BME280;6539;49.476;8.484;2023-05-14T01:52:47;100562.53;;;16.87;59.43
12949;BME280;6539;49.476;8.484;2023-05-14T01:55:15;100559.75;;;16.87;59.56
12949;BME280;6539;49.476;8.484;2023-05-14T01:57:42;100564.22;;;16.84;59.93
12949;BME280;6539;49.476;8.484;2023-05-14T02:00:09;100564.63;;;16.83;59.94
12949;BME280;6539;49.476;8.484;2023-05-14T02:02:37;100565.53;;;16.80;59.95
12949;BME280;6539;49.476;8.484;2023-05-14T02:05:06;100562.84;;;16.76;60.12
12949;BME280;6539;49.476;8.484;2023-05-14T02:07:32;100560.53;;;16.74;60.23
12949;BME280;6539;49.476;8.484;2023-05-14T02:10:02;100568.84;;;16.74;60.40
12949;BME280;6539;49.476;8.484;2023-05-14T02:12:29;100561.75;;;16.73;60.44
12949;BME280;6539;49.476;8.484;2023-05-14T02:14:54;100554.66;;;16.72;60.55
12949;BME280;6539;49.476;8.484;2023-05-14T02:17:24;100556.31;;;16.70;60.78
12949;BME280;6539;49.476;8.484;2023-05-14T02:19:53;100563.50;;;16.67;60.69
12949;BME280;6539;49.476;8.484;2023-05-14T02:22:19;100561.66;;;16.64;60.70
12949;BME280;6539;49.476;8.484;2023-05-14T02:24:45;100557.75;;;16.62;60.81
12949;BME280;6539;49.476;8.484;2023-05-14T02:27:10;100553.53;;;16.57;61.23
12949;BME280;6539;49.476;8.484;2023-05-14T02:29:37;100555.19;;;16.55;61.41
12949;BME280;6539;49.476;8.484;2023-05-14T02:32:04;100552.53;;;16.51;61.36
12949;BME280;6539;49.476;8.484;2023-05-14T02:34:35;100549.50;;;16.46;61.46
12949;BME280;6539;49.476;8.484;2023-05-14T02:37:00;100549.94;;;16.44;61.54
12949;BME280;6539;49.476;8.484;2023-05-14T02:39:29;100550.41;;;16.43;61.63
12949;BME280;6539;49.476;8.484;2023-05-14T02:41:59;100551.25;;;16.40;61.86
12949;BME280;6539;49.476;8.484;2023-05-14T02:44:27;100554.16;;;16.36;62.13
12949;BME280;6539;49.476;8.484;2023-05-14T02:46:53;100560.09;;;16.35;62.25
12949;BME280;6539;49.476;8.484;2023-05-14T02:49:21;100551.91;;;16.31;62.41
12949;BME280;6539;49.476;8.484;2023-05-14T02:51:49;100556.00;;;16.27;62.59
12949;BME280;6539;49.476;8.484;2023-05-14T02:54:17;100555.00;;;16.21;63.04
12949;BME280;6539;49.476;8.484;2023-05-14T02:56:48;100551.78;;;16.22;62.90
12949;BME280;6539;49.476;8.484;2023-05-14T02:59:13;100553.09;;;16.18;63.36
12949;BME280;6539;49.476;8.484;2023-05-14T03:01:39;100553.09;;;16.18;63.55
12949;BME280;6539;49.476;8.484;2023-05-14T03:04:07;100558.63;;;16.18;63.43
12949;BME280;6539;49.476;8.484;2023-05-14T03:06:35;100552.69;;;16.19;63.48
12949;BME280;6539;49.476;8.484;2023-05-14T03:09:01;100555.88;;;16.18;63.57
12949;BME280;6539;49.476;8.484;2023-05-14T03:11:27;100548.88;;;16.13;63.79
12949;BME280;6539;49.476;8.484;2023-05-14T03:13:53;100555.31;;;16.10;64.03
12949;BME280;6539;49.476;8.484;2023-05-14T03:16:23;100556.16;;;16.07;64.18
12949;BME280;6539;49.476;8.484;2023-05-14T03:18:51;100551.88;;;16.06;64.41
12949;BME280;6539;49.476;8.484;2023-05-14T03:21:20;100554.03;;;15.98;64.55
12949;BME280;6539;49.476;8.484;2023-05-14T03:23:48;100552.56;;;15.94;65.00
12949;BME280;6539;49.476;8.484;2023-05-14T03:26:13;100548.00;;;15.87;65.12
12949;BME280;6539;49.476;8.484;2023-05-14T03:28:40;100547.25;;;15.87;65.29
12949;BME280;6539;49.476;8.484;2023-05-14T03:31:05;100547.00;;;15.81;65.39
12949;BME280;6539;49.476;8.484;2023-05-14T03:33:31;100543.09;;;15.79;65.67
12949;BME280;6539;49.476;8.484;2023-05-14T03:35:59;100554.63;;;15.77;65.87
12949;BME280;6539;49.476;8.484;2023-05-14T03:38:25;100547.88;;;15.78;65.85
12949;BME280;6539;49.476;8.484;2023-05-14T03:40:51;100547.44;;;15.80;65.87
12949;BME280;6539;49.476;8.484;2023-05-14T03:43:17;100543.88;;;15.79;65.88
12949;BME280;6539;49.476;8.484;2023-05-14T03:45:49;100549.09;;;15.77;66.04
12949;BME280;6539;49.476;8.484;2023-05-14T03:48:18;100543.22;;;15.75;66.21
12949;BME280;6539;49.476;8.484;2023-05-14T03:50:44;100553.28;;;15.69;66.63
12949;BME280;6539;49.476;8.484;2023-05-14T03:53:12;100550.06;;;15.71;66.34
12949;BME280;6539;49.476;8.484;2023-05-14T03:55:38;100551.69;;;15.68;66.53
12949;BME280;6539;49.476;8.484;2023-05-14T03:58:04;100546.16;;;15.68;66.65
12949;BME280;6539;49.476;8.484;2023-05-14T04:00:40;100554.13;;;15.66;66.57
12949;BME280;6539;49.476;8.484;2023-05-14T04:03:11;100550.34;;;15.60;66.85
12949;BME280;6539;49.476;8.484;2023-05-14T04:05:37;100555.97;;;15.57;67.10
12949;BME280;6539;49.476;8.484;2023-05-14T04:08:03;100548.19;;;15.52;67.30
12949;BME280;6539;49.476;8.484;2023-05-14T04:10:30;100547.06;;;15.49;67.35
12949;BME280;6539;49.476;8.484;2023-05-14T04:12:56;100549.06;;;15.49;67.38
12949;BME280;6539;49.476;8.484;2023-05-14T04:15:24;100545.88;;;15.50;67.27
12949;BME280;6539;49.476;8.484;2023-05-14T04:17:52;100549.84;;;15.49;67.14
12949;BME280;6539;49.476;8.484;2023-05-14T04:20:18;100544.31;;;15.49;67.03
12949;BME280;6539;49.476;8.484;2023-05-14T04:22:47;100546.63;;;15.51;67.09
12949;BME280;6539;49.476;8.484;2023-05-14T04:25:15;100546.63;;;15.51;67.14
12949;BME280;6539;49.476;8.484;2023-05-14T04:27:45;100548.63;;;15.50;67.16
12949;BME280;6539;49.476;8.484;2023-05-14T04:30:13;100551.13;;;15.45;67.46
12949;BME280;6539;49.476;8.484;2023-05-14T04:32:41;100545.59;;;15.45;67.28
12949;BME280;6539;49.476;8.484;2023-05-14T04:35:12;100546.84;;;15.44;67.31
12949;BME280;6539;49.476;8.484;2023-05-14T04:37:40;100538.88;;;15.46;67.16
12949;BME280;6539;49.476;8.484;2023-05-14T04:40:09;100541.97;;;15.48;67.30
12949;BME280;6539;49.476;8.484;2023-05-14T04:42:36;100534.88;;;15.47;67.16
12949;BME280;6539;49.476;8.484;2023-05-14T04:45:02;100541.88;;;15.51;67.06
12949;BME280;6539;49.476;8.484;2023-05-14T04:47:31;100549.66;;;15.56;66.62
12949;BME280;6539;49.476;8.484;2023-05-14T04:49:57;100549.66;;;15.56;66.77
12949;BME280;6539;49.476;8.484;2023-05-14T04:52:23;100554.41;;;15.56;66.64
12949;BME280;6539;49.476;8.484;2023-05-14T04:54:51;100553.22;;;15.57;66.95
12949;BME280;6539;49.476;8.484;2023-05-14T04:57:17;100556.31;;;15.59;66.64
12949;BME280;6539;49.476;8.484;2023-05-14T04:59:45;100561.31;;;15.64;66.42
12949;BME280;6539;49.476;8.484;2023-05-14T05:02:11;100554.13;;;15.66;66.44
12949;BME280;6539;49.476;8.484;2023-05-14T05:04:39;100560.44;;;15.67;66.33
12949;BME280;6539;49.476;8.484;2023-05-14T05:07:09;100566.66;;;15.71;66.07
12949;BME280;6539;49.476;8.484;2023-05-14T05:09:35;100563.13;;;15.70;66.07
12949;BME280;6539;49.476;8.484;2023-05-14T05:12:02;100563.03;;;15.74;65.89
12949;BME280;6539;49.476;8.484;2023-05-14T05:14:28;100564.56;;;15.75;65.71
12949;BME280;6539;49.476;8.484;2023-05-14T05:16:55;100564.56;;;15.75;65.94
12949;BME280;6539;49.476;8.484;2023-05-14T05:19:23;100563.72;;;15.78;65.65
12949;BME280;6539;49.476;8.484;2023-05-14T05:21:51;100564.06;;;15.80;65.36
12949;BME280;6539;49.476;8.484;2023-05-14T05:24:17;100565.59;;;15.81;65.32
12949;BME280;6539;49.476;8.484;2023-05-14T05:26:43;100576.59;;;15.84;65.15
12949;BME280;6539;49.476;8.484;2023-05-14T05:29:11;100567.84;;;15.86;65.04
12949;BME280;6539;49.476;8.484;2023-05-14T05:31:39;100577.28;;;15.88;65.13
12949;BME280;6539;49.476;8.484;2023-05-14T05:34:05;100578.41;;;15.91;65.05
12949;BME280;6539;49.476;8.484;2023-05-14T05:36:33;100582.69;;;15.92;65.04
12949;BME280;6539;49.476;8.484;2023-05-14T05:39:04;100577.28;;;15.88;64.98
12949;BME280;6539;49.476;8.484;2023-05-14T05:41:30;100582.47;;;15.86;65.12
12949;BME280;6539;49.476;8.484;2023-05-14T05:44:00;100578.06;;;15.89;65.02
12949;BME280;6539;49.476;8.484;2023-05-14T05:46:26;100578.72;;;15.93;64.99
12949;BME280;6539;49.476;8.484;2023-05-14T05:48:51;100577.41;;;15.97;64.74
12949;BME280;6539;49.476;8.484;2023-05-14T05:51:17;100581.72;;;15.98;64.62
12949;BME280;6539;49.476;8.484;2023-05-14T05:53:46;100580.59;;;15.96;64.66
12949;BME280;6539;49.476;8.484;2023-05-14T05:56:11;100584.94;;;15.97;64.70
12949;BME280;6539;49.476;8.484;2023-05-14T05:58:37;100579.63;;;16.02;64.42
12949;BME280;6539;49.476;8.484;2023-05-14T06:01:05;100579.22;;;16.04;64.12
12949;BME280;6539;49.476;8.484;2023-05-14T06:03:33;100572.78;;;16.07;64.16
12949;BME280;6539;49.476;8.484;2023-05-14T06:06:00;100574.56;;;16.14;64.23
12949;BME280;6539;49.476;8.484;2023-05-14T06:08:28;100577.13;;;16.08;64.32
12949;BME280;6539;49.476;8.484;2023-05-14T06:10:56;100573.38;;;16.15;64.00
12949;BME280;6539;49.476;8.484;2023-05-14T06:13:24;100572.41;;;16.21;63.88
12949;BME280;6539;49.476;8.484;2023-05-14T06:15:54;100573.06;;;16.25;63.64
12949;BME280;6539;49.476;8.484;2023-05-14T06:18:22;100568.19;;;16.29;63.12
12949;BME280;6539;49.476;8.484;2023-05-14T06:20:48;100574.41;;;16.33;62.74
12949;BME280;6539;49.476;8.484;2023-05-14T06:23:14;100573.09;;;16.38;62.56
12949;BME280;6539;49.476;8.484;2023-05-14T06:25:40;100571.78;;;16.42;62.27
12949;BME280;6539;49.476;8.484;2023-05-14T06:28:05;100576.09;;;16.43;61.98
12949;BME280;6539;49.476;8.484;2023-05-14T06:30:32;100576.53;;;16.42;62.12
12949;BME280;6539;49.476;8.484;2023-05-14T06:32:58;100574.34;;;16.49;62.44
12949;BME280;6539;49.476;8.484;2023-05-14T06:35:23;100568.28;;;16.54;62.69
12949;BME280;6539;49.476;8.484;2023-05-14T06:37:52;100570.50;;;16.59;62.59
12949;BME280;6539;49.476;8.484;2023-05-14T06:40:22;100571.84;;;16.67;62.25
12949;BME280;6539;49.476;8.484;2023-05-14T06:42:48;100568.97;;;16.71;62.23
12949;BME280;6539;49.476;8.484;2023-05-14T06:45:13;100568.06;;;16.74;62.02
12949;BME280;6539;49.476;8.484;2023-05-14T06:47:39;100563.09;;;16.82;61.93
12949;BME280;6539;49.476;8.484;2023-05-14T06:50:08;100571.94;;;16.89;61.60
12949;BME280;6539;49.476;8.484;2023-05-14T06:52:36;100563.75;;;16.98;61.03
12949;BME280;6539;49.476;8.484;2023-05-14T06:55:02;100557.06;;;17.08;60.49
12949;BME280;6539;49.476;8.484;2023-05-14T06:57:28;100549.75;;;17.27;59.96
12949;BME280;6539;49.476;8.484;2023-05-14T06:59:58;100556.22;;;17.58;59.03
12949;BME280;6539;49.476;8.484;2023-05-14T07:02:26;100556.09;;;17.96;57.55
12949;BME280;6539;49.476;8.484;2023-05-14T07:04:54;100552.31;;;18.33;55.96
12949;BME280;6539;49.476;8.484;2023-05-14T07:07:20;100550.94;;;18.90;54.13
12949;BME280;6539;49.476;8.484;2023-05-14T07:09:46;100553.88;;;19.35;52.73
12949;BME280;6539;49.476;8.484;2023-05-14T07:12:15;100550.34;;;19.80;51.26
12949;BME280;6539;49.476;8.484;2023-05-14T07:14:41;100548.00;;;20.33;49.65
12949;BME280;6539;49.476;8.484;2023-05-14T07:17:09;100540.38;;;20.84;47.62
12949;BME280;6539;49.476;8.484;2023-05-14T07:19:37;100541.94;;;21.18;46.80
12949;BME280;6539;49.476;8.484;2023-05-14T07:22:03;100539.84;;;21.51;45.71
12949;BME280;6539;49.476;8.484;2023-05-14T07:24:28;100531.94;;;21.73;44.79
12949;BME280;6539;49.476;8.484;2023-05-14T07:26:54;100538.22;;;21.83;44.78
12949;BME280;6539;49.476;8.484;2023-05-14T07:29:22;100531.16;;;21.73;44.13
12949;BME280;6539;49.476;8.484;2023-05-14T07:31:49;100524.41;;;21.79;43.81
12949;BME280;6539;49.476;8.484;2023-05-14T07:34:20;100521.47;;;21.97;43.26
12949;BME280;6539;49.476;8.484;2023-05-14T07:36:46;100514.06;;;21.94;43.71
12949;BME280;6539;49.476;8.484;2023-05-14T07:39:14;100520.22;;;22.13;42.94
12949;BME280;6539;49.476;8.484;2023-05-14T07:41:40;100515.03;;;22.35;43.00
12949;BME280;6539;49.476;8.484;2023-05-14T07:44:08;100516.16;;;22.43;42.50
12949;BME280;6539;49.476;8.484;2023-05-14T07:46:36;100505.56;;;22.47;42.55
12949;BME280;6539;49.476;8.484;2023-05-14T07:49:02;100505.25;;;22.74;42.44
12949;BME280;6539;49.476;8.484;2023-05-14T07:51:33;100498.59;;;23.07;41.65
12949;BME280;6539;49.476;8.484;2023-05-14T07:54:01;100499.88;;;23.26;41.61
12949;BME280;6539;49.476;8.484;2023-05-14T07:56:26;100497.50;;;23.59;41.22
12949;BME280;6539;49.476;8.484;2023-05-14T07:58:57;100496.06;;;23.89;40.20
12949;BME280;6539;49.476;8.484;2023-05-14T08:01:26;100499.63;;;24.15;40.21
12949;BME280;6539;49.476;8.484;2023-05-14T08:03:54;100488.97;;;24.19;39.57
12949;BME280;6539;49.476;8.484;2023-05-14T08:06:19;100495.28;;;24.14;39.57
12949;BME280;6539;49.476;8.484;2023-05-14T08:08:46;100492.78;;;24.22;39.82
12949;BME280;6539;49.476;8.484;2023-05-14T08:11:17;100492.69;;;24.37;39.39
12949;BME280;6539;49.476;8.484;2023-05-14T08:13:42;100485.97;;;24.60;38.78
12949;BME280;6539;49.476;8.484;2023-05-14T08:16:08;100483.75;;;24.38;38.86
12949;BME280;6539;49.476;8.484;2023-05-14T08:18:34;100496.63;;;23.99;39.45
12949;BME280;6539;49.476;8.484;2023-05-14T08:21:03;100487.19;;;23.96;39.88
12949;BME280;6539;49.476;8.484;2023-05-14T08:23:33;100488.34;;;23.84;39.91
12949;BME280;6539;49.476;8.484;2023-05-14T08:25:59;100483.63;;;23.50;40.30
12949;BME280;6539;49.476;8.484;2023-05-14T08:28:25;100487.13;;;23.05;40.82
12949;BME280;6539;49.476;8.484;2023-05-14T08:30:53;100473.22;;;22.96;41.40
12949;BME280;6539;49.476;8.484;2023-05-14T08:33:21;100472.97;;;23.14;40.90
12949;BME280;6539;49.476;8.484;2023-05-14T08:35:53;100472.28;;;22.84;41.51
12949;BME280;6539;49.476;8.484;2023-05-14T08:38:22;100469.06;;;22.56;42.02
12949;BME280;6539;49.476;8.484;2023-05-14T08:40:57;100467.75;;;22.87;41.92
12949;BME280;6539;49.476;8.484;2023-05-14T08:43:48;100473.47;;;23.32;40.78
12949;BME280;6539;49.476;8.484;2023-05-14T08:46:16;100476.72;;;23.71;40.40
12949;BME280;6539;49.476;8.484;2023-05-14T08:49:01;100477.09;;;24.04;39.77
12949;BME280;6539;49.476;8.484;2023-05-14T08:51:29;100473.94;;;23.97;39.69
12949;BME280;6539;49.476;8.484;2023-05-14T08:53:59;100466.50;;;23.94;39.91
12949;BME280;6539;49.476;8.484;2023-05-14T08:56:31;100468.59;;;23.73;40.24
12949;BME280;6539;49.476;8.484;2023-05-14T08:58:58;100460.66;;;23.46;40.88
12949;BME280;6539;49.476;8.484;2023-05-14T09:01:24;100467.94;;;23.18;41.32
12949;BME280;6539;49.476;8.484;2023-05-14T09:03:51;100460.47;;;22.95;41.42
12949;BME280;6539;49.476;8.484;2023-05-14T09:06:21;100466.47;;;22.67;41.85
12949;BME280;6539;49.476;8.484;2023-05-14T09:08:49;100460.94;;;22.58;42.25
12949;BME280;6539;49.476;8.484;2023-05-14T09:11:15;100458.56;;;22.51;42.18
12949;BME280;6539;49.476;8.484;2023-05-14T09:13:43;100467.19;;;22.33;42.55
12949;BME280;6539;49.476;8.484;2023-05-14T09:16:11;100462.78;;;22.12;43.21
12949;BME280;6539;49.476;8.484;2023-05-14T09:18:43;100463.53;;;21.98;43.67
12949;BME280;6539;49.476;8.484;2023-05-14T09:21:14;100450.25;;;21.93;43.85
12949;BME280;6539;49.476;8.484;2023-05-14T09:23:44;100451.84;;;21.85;44.61
12949;BME280;6539;49.476;8.484;2023-05-14T09:26:11;100444.41;;;21.82;44.58
12949;BME280;6539;49.476;8.484;2023-05-14T09:28:40;100446.97;;;21.94;44.63
12949;BME280;6539;49.476;8.484;2023-05-14T09:31:08;100455.03;;;22.07;43.97
12949;BME280;6539;49.476;8.484;2023-05-14T09:33:34;100457.19;;;22.12;43.32
12949;BME280;6539;49.476;8.484;2023-05-14T09:36:01;100459.41;;;22.08;43.22
12949;BME280;6539;49.476;8.484;2023-05-14T09:38:31;100459.28;;;22.17;42.90
12949;BME280;6539;49.476;8.484;2023-05-14T09:40:59;100451.63;;;22.32;42.37
12949;BME280;6539;49.476;8.484;2023-05-14T09:43:25;100453.81;;;22.72;42.17
12949;BME280;6539;49.476;8.484;2023-05-14T09:45:51;100447.75;;;22.94;41.00
12949;BME280;6539;49.476;8.484;2023-05-14T09:48:20;100455.53;;;23.04;40.83
12949;BME280;6539;49.476;8.484;2023-05-14T09:50:47;100443.81;;;23.06;40.73
12949;BME280;6539;49.476;8.484;2023-05-14T09:53:15;100452.03;;;23.09;40.33
12949;BME280;6539;49.476;8.484;2023-05-14T09:55:42;100446.06;;;23.02;40.14
12949;BME280;6539;49.476;8.484;2023-05-14T09:58:12;100443.13;;;23.11;39.72
12949;BME280;6539;49.476;8.484;2023-05-14T10:00:44;100443.13;;;23.31;39.83
12949;BME280;6539;49.476;8.484;2023-05-14T10:03:13;100442.41;;;23.56;39.24
12949;BME280;6539;49.476;8.484;2023-05-14T10:05:43;100435.59;;;23.63;38.20
12949;BME280;6539;49.476;8.484;2023-05-14T10:10:50;100445.09;;;23.45;38.48
12949;BME280;6539;49.476;8.484;2023-05-14T10:13:24;100447.31;;;23.61;38.80
12949;BME280;6539;49.476;8.484;2023-05-14T10:16:18;100440.31;;;23.77;38.38
12949;BME280;6539;49.476;8.484;2023-05-14T10:18:51;100444.19;;;23.79;38.15
12949;BME280;6539;49.476;8.484;2023-05-14T10:21:22;100444.06;;;23.68;38.16
12949;BME280;6539;49.476;8.484;2023-05-14T10:23:49;100451.09;;;23.58;38.60
12949;BME280;6539;49.476;8.484;2023-05-14T10:26:16;100448.16;;;23.47;38.88
12949;BME280;6539;49.476;8.484;2023-05-14T10:28:43;100440.81;;;23.29;39.13
12949;BME280;6539;49.476;8.484;2023-05-14T10:31:09;100445.38;;;23.07;39.47
12949;BME280;6539;49.476;8.484;2023-05-14T10:33:50;100438.06;;;22.95;40.09
12949;BME280;6539;49.476;8.484;2023-05-14T10:36:19;100441.72;;;22.81;40.27
12949;BME280;6539;49.476;8.484;2023-05-14T10:38:54;100444.56;;;22.66;40.54
12949;BME280;6539;49.476;8.484;2023-05-14T10:41:23;100436.47;;;22.53;40.78
12949;BME280;6539;49.476;8.484;2023-05-14T10:43:49;100444.88;;;22.39;40.77
12949;BME280;6539;49.476;8.484;2023-05-14T10:46:15;100450.13;;;22.31;40.16
12949;BME280;6539;49.476;8.484;2023-05-14T10:48:43;100437.59;;;22.12;40.09
12949;BME280;6539;49.476;8.484;2023-05-14T10:51:14;100440.22;;;22.01;40.09
12949;BME280;6539;49.476;8.484;2023-05-14T10:53:42;100434.41;;;21.90;40.34
12949;BME280;6539;49.476;8.484;2023-05-14T10:56:12;100439.16;;;21.84;40.25
12949;BME280;6539;49.476;8.484;2023-05-14T10:58:45;100444.78;;;21.75;40.20
12949;BME280;6539;49.476;8.484;2023-05-14T11:01:12;100435.13;;;21.61;40.70
12949;BME280;6539;49.476;8.484;2023-05-14T11:03:42;100440.72;;;21.47;41.33
12949;BME280;6539;49.476;8.484;2023-05-14T11:06:11;100437.81;;;21.41;42.01
12949;BME280;6539;49.476;8.484;2023-05-14T11:08:40;100435.09;;;21.32;42.48
12949;BME280;6539;49.476;8.484;2023-05-14T11:11:09;100437.00;;;21.26;42.68
12949;BME280;6539;49.476;8.484;2023-05-14T11:13:35;100429.28;;;21.21;43.04
12949;BME280;6539;49.476;8.484;2023-05-14T11:16:01;100434.38;;;21.22;42.89
12949;BME280;6539;49.476;8.484;2023-05-14T11:18:28;100430.41;;;21.14;42.82
12949;BME280;6539;49.476;8.484;2023-05-14T11:20:59;100424.34;;;21.16;43.09
12949;BME280;6539;49.476;8.484;2023-05-14T11:23:25;100429.19;;;21.15;43.14
12949;BME280;6539;49.476;8.484;2023-05-14T11:25:55;100424.84;;;21.14;43.19
12949;BME280;6539;49.476;8.484;2023-05-14T11:28:25;100419.44;;;21.11;43.63
12949;BME280;6539;49.476;8.484;2023-05-14T11:30:53;100424.25;;;21.10;42.85
12949;BME280;6539;49.476;8.484;2023-05-14T11:33:19;100424.53;;;21.12;43.38
12949;BME280;6539;49.476;8.484;2023-05-14T11:35:50;100417.34;;;21.20;44.33
12949;BME280;6539;49.476;8.484;2023-05-14T11:38:20;100418.34;;;21.32;43.04
12949;BME280;6539;49.476;8.484;2023-05-14T11:40:53;100409.09;;;21.41;43.11
12949;BME280;6539;49.476;8.484;2023-05-14T11:43:19;100420.09;;;21.44;42.62
12949;BME280;6539;49.476;8.484;2023-05-14T11:45:52;100414.91;;;21.52;42.48
12949;BME280;6539;49.476;8.484;2023-05-14T11:48:24;100412.97;;;21.58;42.24
12949;BME280;6539;49.476;8.484;2023-05-14T11:50:54;100406.72;;;21.63;42.14
12949;BME280;6539;49.476;8.484;2023-05-14T11:53:29;100407.69;;;21.60;41.98
12949;BME280;6539;49.476;8.484;2023-05-14T11:55:55;100395.94;;;21.70;41.98
12949;BME280;6539;49.476;8.484;2023-05-14T11:58:26;100404.22;;;21.79;41.84
12949;BME280;6539;49.476;8.484;2023-05-14T12:00:54;100410.09;;;21.81;41.72
12949;BME280;6539;49.476;8.484;2023-05-14T12:03:21;100404.44;;;21.76;41.45
12949;BME280;6539;49.476;8.484;2023-05-14T12:06:01;100403.94;;;21.77;41.72
12949;BME280;6539;49.476;8.484;2023-05-14T12:08:31;100402.03;;;21.83;41.72
12949;BME280;6539;49.476;8.484;2023-05-14T12:10:59;100396.31;;;21.78;41.33
12949;BME280;6539;49.476;8.484;2023-05-14T12:13:31;100392.25;;;21.79;41.45
12949;BME280;6539;49.476;8.484;2023-05-14T12:16:00;100391.63;;;21.84;40.99
12949;BME280;6539;49.476;8.484;2023-05-14T12:18:30;100384.66;;;21.94;40.89
12949;BME280;6539;49.476;8.484;2023-05-14T12:21:02;100384.19;;;21.95;41.10
12949;BME280;6539;49.476;8.484;2023-05-14T12:23:31;100378.47;;;22.05;40.95
12949;BME280;6539;49.476;8.484;2023-05-14T12:26:01;100370.88;;;22.05;40.80
12949;BME280;6539;49.476;8.484;2023-05-14T12:28:28;100365.47;;;22.16;40.82
12949;BME280;6539;49.476;8.484;2023-05-14T12:30:55;100363.00;;;22.24;40.84
12949;BME280;6539;49.476;8.484;2023-05-14T12:33:21;100364.91;;;22.32;40.72
12949;BME280;6539;49.476;8.484;2023-05-14T12:35:49;100366.47;;;22.33;40.80
12949;BME280;6539;49.476;8.484;2023-05-14T12:38:14;100351.63;;;22.27;40.72
12949;BME280;6539;49.476;8.484;2023-05-14T12:40:42;100353.38;;;22.25;40.75
12949;BME280;6539;49.476;8.484;2023-05-14T12:43:08;100351.94;;;22.49;40.31
12949;BME280;6539;49.476;8.484;2023-05-14T12:45:38;100353.38;;;22.59;40.01
12949;BME280;6539;49.476;8.484;2023-05-14T12:48:05;100355.88;;;22.57;39.77
12949;BME280;6539;49.476;8.484;2023-05-14T12:50:31;100348.22;;;22.58;39.83
12949;BME280;6539;49.476;8.484;2023-05-14T12:52:58;100345.50;;;22.43;40.07
12949;BME280;6539;49.476;8.484;2023-05-14T12:55:25;100349.13;;;22.49;40.24
12949;BME280;6539;49.476;8.484;2023-05-14T12:57:56;100344.88;;;22.68;40.21
12949;BME280;6539;49.476;8.484;2023-05-14T13:00:27;100328.88;;;22.95;39.90
12949;BME280;6539;49.476;8.484;2023-05-14T13:02:52;100331.91;;;23.17;39.00
12949;BME280;6539;49.476;8.484;2023-05-14T13:05:20;100325.63;;;23.22;38.60
12949;BME280;6539;49.476;8.484;2023-05-14T13:07:46;100329.50;;;23.30;38.39
12949;BME280;6539;49.476;8.484;2023-05-14T13:10:14;100329.94;;;23.23;38.89
12949;BME280;6539;49.476;8.484;2023-05-14T13:12:45;100327.88;;;23.18;38.76
12949;BME280;6539;49.476;8.484;2023-05-14T13:15:11;100332.91;;;23.14;38.79